sensor_id;sensor_type;location;lat;lon;timestamp;P1;durP1;ratioP1;P2;durP2;ratioP2
21206;SDS011;10761;48.532;8.026;2024-01-15T00:00:39;49.47;;;19.95;;
21206;SDS011;10761;48.532;8.026;2024-01-15T00:03:05;41.78;;;14.75;;
21206;SDS011;10761;48.532;8.026;2024-01-15T00:05:30;40.70;;;16.02;;
21206;SDS011;10761;48.532;8.026;2024-01-15T00:07:56;46.08;;;18.67;;
21206;SDS011;10761;48.532;8.026;2024-01-15T00:10:21;41.45;;;16.00;;
21206;SDS011;10761;48.532;8.026;2024-01-15T00:12:48;40.22;;;17.52;;
21206;SDS011;10761;48.532;8.026;2024-01-15T00:15:13;39.95;;;16.83;;
21206;SDS011;10761;48.532;8.026;2024-01-15T00:17:39;43.00;;;17.90;;
21206;SDS011;10761;48.532;8.026;2024-01-15T00:20:05;41.05;;;16.60;;
21206;SDS011;10761;48.532;8.026;2024-01-15T00:22:31;39.13;;;17.10;;
21206;SDS011;10761;48.532;8.026;2024-01-15T00:24:57;42.63;;;16.85;;
21206;SDS011;10761;48.532;8.026;2024-01-15T00:27:23;38.05;;;16.10;;
21206;SDS011;10761;48.532;8.026;2024-01-15T00:29:48;40.33;;;17.23;;
21206;SDS011;10761;48.532;8.026;2024-01-15T00:32:15;41.88;;;18.30;;
21206;SDS011;10761;48.532;8.026;2024-01-15T00:34:41;38.13;;;18.23;;
21206;SDS011;10761;48.532;8.026;2024-01-15T00:37:06;44.60;;;18.55;;
21206;SDS011;10761;48.532;8.026;2024-01-15T00:39:32;44.67;;;18.67;;
21206;SDS011;10761;48.532;8.026;2024-01-15T00:41:58;44.70;;;18.88;;
21206;SDS011;10761;48.532;8.026;2024-01-15T00:44:23;44.15;;;19.55;;
21206;SDS011;10761;48.532;8.026;2024-01-15T00:46:49;43.92;;;18.48;;
21206;SDS011;10761;48.532;8.026;2024-01-15T00:49:15;39.55;;;18.08;;
21206;SDS011;10761;48.532;8.026;2024-01-15T00:51:41;42.55;;;19.42;;
21206;SDS011;10761;48.532;8.026;2024-01-15T00:54:07;41.28;;;19.15;;
21206;SDS011;10761;48.532;8.026;2024-01-15T00:56:32;41.88;;;16.95;;
21206;SDS011;10761;48.532;8.026;2024-01-15T00:58:58;42.63;;;18.17;;
21206;SDS011;10761;48.532;8.026;2024-01-15T01:01:24;41.88;;;19.80;;
21206;SDS011;10761;48.532;8.026;2024-01-15T01:03:50;41.38;;;17.73;;
21206;SDS011;10761;48.532;8.026;2024-01-15T01:06:15;39.53;;;17.55;;
21206;SDS011;10761;48.532;8.026;2024-01-15T01:08:41;36.97;;;17.38;;
21206;SDS011;10761;48.532;8.026;2024-01-15T01:11:06;39.95;;;18.30;;
21206;SDS011;10761;48.532;8.026;2024-01-15T01:13:32;47.15;;;18.83;;
21206;SDS011;10761;48.532;8.026;2024-01-15T01:15:58;43.75;;;18.45;;
21206;SDS011;10761;48.532;8.026;2024-01-15T01:18:23;40.45;;;18.90;;
21206;SDS011;10761;48.532;8.026;2024-01-15T01:20:49;37.47;;;17.23;;
21206;SDS011;10761;48.532;8.026;2024-01-15T01:23:16;40.15;;;18.08;;
21206;SDS011;10761;48.532;8.026;2024-01-15T01:25:41;41.38;;;18.42;;
21206;SDS011;10761;48.532;8.026;2024-01-15T01:28:07;37.00;;;17.52;;
21206;SDS011;10761;48.532;8.026;2024-01-15T01:30:32;37.22;;;17.48;;
21206;SDS011;10761;48.532;8.026;2024-01-15T01:32:58;41.08;;;18.45;;
21206;SDS011;10761;48.532;8.026;2024-01-15T01:35:23;42.15;;;19.27;;
21206;SDS011;10761;48.532;8.026;2024-01-15T01:37:49;45.13;;;19.90;;
21206;SDS011;10761;48.532;8.026;2024-01-15T01:40:15;41.63;;;18.42;;
21206;SDS011;10761;48.532;8.026;2024-01-15T01:42:40;44.08;;;20.27;;
21206;SDS011;10761;48.532;8.026;2024-01-15T01:45:06;46.40;;;19.30;;
21206;SDS011;10761;48.532;8.026;2024-01-15T01:47:32;44.38;;;19.60;;
21206;SDS011;10761;48.532;8.026;2024-01-15T01:49:58;40.67;;;19.48;;
21206;SDS011;10761;48.532;8.026;2024-01-15T01:52:24;40.55;;;19.33;;
21206;SDS011;10761;48.532;8.026;2024-01-15T01:54:49;44.65;;;19.23;;
21206;SDS011;10761;48.532;8.026;2024-01-15T01:57:17;40.38;;;19.50;;
21206;SDS011;10761;48.532;8.026;2024-01-15T01:59:44;45.00;;;20.30;;
21206;SDS011;10761;48.532;8.026;2024-01-15T02:02:11;40.70;;;18.10;;
21206;SDS011;10761;48.532;8.026;2024-01-15T02:04:37;42.80;;;19.60;;
21206;SDS011;10761;48.532;8.026;2024-01-15T02:07:03;38.63;;;19.98;;
21206;SDS011;10761;48.532;8.026;2024-01-15T02:09:29;45.15;;;19.05;;
21206;SDS011;10761;48.532;8.026;2024-01-15T02:11:54;43.95;;;20.17;;
21206;SDS011;10761;48.532;8.026;2024-01-15T02:14:20;41.80;;;20.58;;
21206;SDS011;10761;48.532;8.026;2024-01-15T02:16:46;49.30;;;21.35;;
21206;SDS011;10761;48.532;8.026;2024-01-15T02:19:15;42.10;;;19.92;;
21206;SDS011;10761;48.532;8.026;2024-01-15T02:21:44;44.60;;;19.63;;
21206;SDS011;10761;48.532;8.026;2024-01-15T02:24:10;44.55;;;20.48;;
21206;SDS011;10761;48.532;8.026;2024-01-15T02:26:37;43.90;;;19.92;;
21206;SDS011;10761;48.532;8.026;2024-01-15T02:29:03;45.15;;;19.35;;
21206;SDS011;10761;48.532;8.026;2024-01-15T02:31:30;43.13;;;19.55;;
21206;SDS011;10761;48.532;8.026;2024-01-15T02:33:55;45.13;;;19.27;;
21206;SDS011;10761;48.532;8.026;2024-01-15T02:36:21;41.55;;;19.70;;
21206;SDS011;10761;48.532;8.026;2024-01-15T02:38:46;43.28;;;19.55;;
21206;SDS011;10761;48.532;8.026;2024-01-15T02:41:12;41.88;;;19.05;;
21206;SDS011;10761;48.532;8.026;2024-01-15T02:43:39;40.70;;;18.67;;
21206;SDS011;10761;48.532;8.026;2024-01-15T02:46:05;41.42;;;18.48;;
21206;SDS011;10761;48.532;8.026;2024-01-15T02:48:31;39.50;;;18.13;;
21206;SDS011;10761;48.532;8.026;2024-01-15T02:50:56;38.75;;;18.90;;
21206;SDS011;10761;48.532;8.026;2024-01-15T02:53:22;38.95;;;16.40;;
21206;SDS011;10761;48.532;8.026;2024-01-15T02:55:47;37.83;;;18.45;;
21206;SDS011;10761;48.532;8.026;2024-01-15T02:58:14;43.97;;;19.20;;
21206;SDS011;10761;48.532;8.026;2024-01-15T03:00:40;41.95;;;19.17;;
21206;SDS011;10761;48.532;8.026;2024-01-15T03:03:05;43.60;;;19.50;;
21206;SDS011;10761;48.532;8.026;2024-01-15T03:05:31;40.50;;;19.08;;
21206;SDS011;10761;48.532;8.026;2024-01-15T03:07:56;46.25;;;19.35;;
21206;SDS011;10761;48.532;8.026;2024-01-15T03:10:22;38.28;;;16.83;;
21206;SDS011;10761;48.532;8.026;2024-01-15T03:12:47;38.50;;;18.08;;
21206;SDS011;10761;48.532;8.026;2024-01-15T03:15:13;37.55;;;17.90;;
21206;SDS011;10761;48.532;8.026;2024-01-15T03:17:38;45.15;;;19.42;;
21206;SDS011;10761;48.532;8.026;2024-01-15T03:20:04;45.45;;;18.95;;
21206;SDS011;10761;48.532;8.026;2024-01-15T03:22:30;43.15;;;19.75;;
21206;SDS011;10761;48.532;8.026;2024-01-15T03:24:55;39.72;;;18.58;;
21206;SDS011;10761;48.532;8.026;2024-01-15T03:27:21;39.45;;;18.65;;
21206;SDS011;10761;48.532;8.026;2024-01-15T03:29:46;35.70;;;17.05;;
21206;SDS011;10761;48.532;8.026;2024-01-15T03:32:12;40.92;;;17.45;;
21206;SDS011;10761;48.532;8.026;2024-01-15T03:34:38;42.47;;;18.40;;
21206;SDS011;10761;48.532;8.026;2024-01-15T03:37:03;42.03;;;18.98;;
21206;SDS011;10761;48.532;8.026;2024-01-15T03:39:29;43.20;;;18.10;;
21206;SDS011;10761;48.532;8.026;2024-01-15T03:41:55;40.97;;;18.48;;
21206;SDS011;10761;48.532;8.026;2024-01-15T03:44:20;42.72;;;19.17;;
21206;SDS011;10761;48.532;8.026;2024-01-15T03:46:46;37.60;;;16.52;;
21206;SDS011;10761;48.532;8.026;2024-01-15T03:49:11;40.13;;;18.15;;
21206;SDS011;10761;48.532;8.026;2024-01-15T03:51:37;42.33;;;19.08;;
21206;SDS011;10761;48.532;8.026;2024-01-15T03:54:02;41.53;;;17.85;;
21206;SDS011;10761;48.532;8.026;2024-01-15T03:56:29;38.28;;;17.40;;
21206;SDS011;10761;48.532;8.026;2024-01-15T03:58:55;33.28;;;14.75;;
21206;SDS011;10761;48.532;8.026;2024-01-15T04:01:20;42.33;;;18.75;;
21206;SDS011;10761;48.532;8.026;2024-01-15T04:03:46;45.05;;;19.60;;
21206;SDS011;10761;48.532;8.026;2024-01-15T04:06:11;40.90;;;18.85;;
21206;SDS011;10761;48.532;8.026;2024-01-15T04:08:37;38.85;;;19.35;;
21206;SDS011;10761;48.532;8.026;2024-01-15T04:11:02;43.30;;;20.60;;
21206;SDS011;10761;48.532;8.026;2024-01-15T04:13:28;46.38;;;20.48;;
21206;SDS011;10761;48.532;8.026;2024-01-15T04:15:57;43.30;;;19.48;;
21206;SDS011;10761;48.532;8.026;2024-01-15T04:18:23;42.55;;;19.33;;
21206;SDS011;10761;48.532;8.026;2024-01-15T04:20:50;43.20;;;21.60;;
21206;SDS011;10761;48.532;8.026;2024-01-15T04:23:15;43.45;;;21.00;;
21206;SDS011;10761;48.532;8.026;2024-01-15T04:25:41;37.15;;;16.77;;
21206;SDS011;10761;48.532;8.026;2024-01-15T04:28:07;32.70;;;15.93;;
21206;SDS011;10761;48.532;8.026;2024-01-15T04:30:33;38.40;;;18.35;;
21206;SDS011;10761;48.532;8.026;2024-01-15T04:32:59;37.65;;;17.23;;
21206;SDS011;10761;48.532;8.026;2024-01-15T04:35:25;33.47;;;15.85;;
21206;SDS011;10761;48.532;8.026;2024-01-15T04:37:50;36.60;;;18.23;;
21206;SDS011;10761;48.532;8.026;2024-01-15T04:40:16;40.30;;;17.10;;
21206;SDS011;10761;48.532;8.026;2024-01-15T04:42:41;37.33;;;17.33;;
21206;SDS011;10761;48.532;8.026;2024-01-15T04:45:07;35.80;;;17.50;;
21206;SDS011;10761;48.532;8.026;2024-01-15T04:47:33;35.58;;;16.35;;
21206;SDS011;10761;48.532;8.026;2024-01-15T04:49:58;39.13;;;17.52;;
21206;SDS011;10761;48.532;8.026;2024-01-15T04:52:24;36.63;;;17.50;;
21206;SDS011;10761;48.532;8.026;2024-01-15T04:54:49;37.63;;;17.85;;
21206;SDS011;10761;48.532;8.026;2024-01-15T04:57:15;38.50;;;18.25;;
21206;SDS011;10761;48.532;8.026;2024-01-15T04:59:40;35.10;;;16.20;;
21206;SDS011;10761;48.532;8.026;2024-01-15T05:02:06;34.40;;;16.20;;
21206;SDS011;10761;48.532;8.026;2024-01-15T05:04:32;33.92;;;16.52;;
21206;SDS011;10761;48.532;8.026;2024-01-15T05:06:58;30.27;;;15.05;;
21206;SDS011;10761;48.532;8.026;2024-01-15T05:09:23;32.78;;;14.93;;
21206;SDS011;10761;48.532;8.026;2024-01-15T05:11:49;28.75;;;14.38;;
21206;SDS011;10761;48.532;8.026;2024-01-15T05:14:14;27.50;;;12.18;;
21206;SDS011;10761;48.532;8.026;2024-01-15T05:16:44;29.15;;;13.68;;
21206;SDS011;10761;48.532;8.026;2024-01-15T05:19:12;21.70;;;9.68;;
21206;SDS011;10761;48.532;8.026;2024-01-15T05:21:38;26.05;;;11.88;;
21206;SDS011;10761;48.532;8.026;2024-01-15T05:24:03;25.08;;;11.52;;
21206;SDS011;10761;48.532;8.026;2024-01-15T05:26:29;24.70;;;11.65;;
21206;SDS011;10761;48.532;8.026;2024-01-15T05:28:54;25.92;;;12.45;;
21206;SDS011;10761;48.532;8.026;2024-01-15T05:31:20;21.60;;;10.90;;
21206;SDS011;10761;48.532;8.026;2024-01-15T05:33:45;22.27;;;10.10;;
21206;SDS011;10761;48.532;8.026;2024-01-15T05:36:11;23.45;;;11.77;;
21206;SDS011;10761;48.532;8.026;2024-01-15T05:38:36;16.02;;;7.00;;
21206;SDS011;10761;48.532;8.026;2024-01-15T05:41:02;21.42;;;8.50;;
21206;SDS011;10761;48.532;8.026;2024-01-15T05:43:28;20.10;;;10.48;;
21206;SDS011;10761;48.532;8.026;2024-01-15T05:45:53;21.05;;;10.35;;
21206;SDS011;10761;48.532;8.026;2024-01-15T05:48:19;23.73;;;10.90;;
21206;SDS011;10761;48.532;8.026;2024-01-15T05:50:44;21.95;;;10.82;;
21206;SDS011;10761;48.532;8.026;2024-01-15T05:53:10;20.58;;;10.57;;
21206;SDS011;10761;48.532;8.026;2024-01-15T05:55:36;20.70;;;9.25;;
21206;SDS011;10761;48.532;8.026;2024-01-15T05:58:03;18.23;;;8.60;;
21206;SDS011;10761;48.532;8.026;2024-01-15T06:00:28;20.45;;;9.20;;
21206;SDS011;10761;48.532;8.026;2024-01-15T06:02:54;20.90;;;9.60;;
21206;SDS011;10761;48.532;8.026;2024-01-15T06:05:20;17.55;;;8.93;;
21206;SDS011;10761;48.532;8.026;2024-01-15T06:07:45;16.20;;;8.43;;
21206;SDS011;10761;48.532;8.026;2024-01-15T06:10:11;20.77;;;8.70;;
21206;SDS011;10761;48.532;8.026;2024-01-15T06:12:36;16.50;;;7.95;;
21206;SDS011;10761;48.532;8.026;2024-01-15T06:15:02;18.10;;;8.52;;
21206;SDS011;10761;48.532;8.026;2024-01-15T06:17:27;17.55;;;8.85;;
21206;SDS011;10761;48.532;8.026;2024-01-15T06:19:53;18.38;;;8.43;;
21206;SDS011;10761;48.532;8.026;2024-01-15T06:22:19;15.35;;;7.60;;
21206;SDS011;10761;48.532;8.026;2024-01-15T06:24:44;14.35;;;7.45;;
21206;SDS011;10761;48.532;8.026;2024-01-15T06:27:10;15.07;;;7.70;;
21206;SDS011;10761;48.532;8.026;2024-01-15T06:29:37;16.25;;;8.00;;
21206;SDS011;10761;48.532;8.026;2024-01-15T06:32:03;13.95;;;6.88;;
21206;SDS011;10761;48.532;8.026;2024-01-15T06:34:29;14.10;;;6.70;;
21206;SDS011;10761;48.532;8.026;2024-01-15T06:36:54;14.90;;;7.28;;
21206;SDS011;10761;48.532;8.026;2024-01-15T06:39:20;14.93;;;7.68;;
21206;SDS011;10761;48.532;8.026;2024-01-15T06:41:45;13.27;;;7.07;;
21206;SDS011;10761;48.532;8.026;2024-01-15T06:44:11;11.15;;;5.60;;
21206;SDS011;10761;48.532;8.026;2024-01-15T06:46:38;13.48;;;6.03;;
21206;SDS011;10761;48.532;8.026;2024-01-15T06:49:07;15.15;;;6.18;;
21206;SDS011;10761;48.532;8.026;2024-01-15T06:51:32;11.73;;;6.05;;
21206;SDS011;10761;48.532;8.026;2024-01-15T06:53:58;13.80;;;6.53;;
21206;SDS011;10761;48.532;8.026;2024-01-15T06:56:23;11.98;;;6.50;;
21206;SDS011;10761;48.532;8.026;2024-01-15T06:58:49;12.68;;;6.47;;
21206;SDS011;10761;48.532;8.026;2024-01-15T07:01:14;12.85;;;6.30;;
21206;SDS011;10761;48.532;8.026;2024-01-15T07:03:40;9.60;;;6.25;;
21206;SDS011;10761;48.532;8.026;2024-01-15T07:06:06;13.25;;;5.68;;
21206;SDS011;10761;48.532;8.026;2024-01-15T07:08:31;12.82;;;6.18;;
21206;SDS011;10761;48.532;8.026;2024-01-15T07:10:57;10.48;;;5.20;;
21206;SDS011;10761;48.532;8.026;2024-01-15T07:13:22;11.32;;;5.63;;
21206;SDS011;10761;48.532;8.026;2024-01-15T07:15:48;10.60;;;5.93;;
21206;SDS011;10761;48.532;8.026;2024-01-15T07:18:13;10.57;;;4.80;;
21206;SDS011;10761;48.532;8.026;2024-01-15T07:20:39;10.55;;;5.00;;
21206;SDS011;10761;48.532;8.026;2024-01-15T07:23:04;8.90;;;4.53;;
21206;SDS011;10761;48.532;8.026;2024-01-15T07:25:30;13.32;;;5.57;;
21206;SDS011;10761;48.532;8.026;2024-01-15T07:27:56;9.10;;;5.30;;
21206;SDS011;10761;48.532;8.026;2024-01-15T07:30:21;8.40;;;5.20;;
21206;SDS011;10761;48.532;8.026;2024-01-15T07:32:47;12.02;;;5.53;;
21206;SDS011;10761;48.532;8.026;2024-01-15T07:35:14;12.10;;;5.05;;
21206;SDS011;10761;48.532;8.026;2024-01-15T07:37:40;8.93;;;4.85;;
21206;SDS011;10761;48.532;8.026;2024-01-15T07:40:06;10.18;;;6.25;;
21206;SDS011;10761;48.532;8.026;2024-01-15T07:42:33;12.63;;;6.32;;
21206;SDS011;10761;48.532;8.026;2024-01-15T07:44:59;14.95;;;6.95;;
21206;SDS011;10761;48.532;8.026;2024-01-15T07:47:25;27.38;;;13.20;;
21206;SDS011;10761;48.532;8.026;2024-01-15T07:49:52;24.05;;;12.48;;
21206;SDS011;10761;48.532;8.026;2024-01-15T07:52:17;18.33;;;9.10;;
21206;SDS011;10761;48.532;8.026;2024-01-15T07:54:43;18.10;;;9.45;;
21206;SDS011;10761;48.532;8.026;2024-01-15T07:57:09;23.20;;;11.40;;
21206;SDS011;10761;48.532;8.026;2024-01-15T07:59:35;24.85;;;11.82;;
21206;SDS011;10761;48.532;8.026;2024-01-15T08:02:00;25.38;;;12.68;;
21206;SDS011;10761;48.532;8.026;2024-01-15T08:04:26;30.60;;;14.10;;
21206;SDS011;10761;48.532;8.026;2024-01-15T08:06:52;26.75;;;13.77;;
21206;SDS011;10761;48.532;8.026;2024-01-15T08:09:18;31.60;;;16.17;;
21206;SDS011;10761;48.532;8.026;2024-01-15T08:11:43;32.25;;;15.13;;
21206;SDS011;10761;48.532;8.026;2024-01-15T08:14:09;33.92;;;15.38;;
21206;SDS011;10761;48.532;8.026;2024-01-15T08:16:35;44.33;;;21.10;;
21206;SDS011;10761;48.532;8.026;2024-01-15T08:19:01;37.00;;;18.20;;
21206;SDS011;10761;48.532;8.026;2024-01-15T08:21:27;31.73;;;15.88;;
21206;SDS011;10761;48.532;8.026;2024-01-15T08:23:56;34.05;;;16.38;;
21206;SDS011;10761;48.532;8.026;2024-01-15T08:26:22;33.75;;;16.67;;
21206;SDS011;10761;48.532;8.026;2024-01-15T08:28:48;34.33;;;16.25;;
21206;SDS011;10761;48.532;8.026;2024-01-15T08:31:14;41.55;;;18.70;;
21206;SDS011;10761;48.532;8.026;2024-01-15T08:33:39;36.75;;;17.88;;
21206;SDS011;10761;48.532;8.026;2024-01-15T08:36:05;44.55;;;18.52;;
21206;SDS011;10761;48.532;8.026;2024-01-15T08:38:31;40.45;;;18.83;;
21206;SDS011;10761;48.532;8.026;2024-01-15T08:40:56;40.67;;;18.88;;
21206;SDS011;10761;48.532;8.026;2024-01-15T08:43:24;43.10;;;20.00;;
21206;SDS011;10761;48.532;8.026;2024-01-15T08:45:49;45.47;;;20.50;;
21206;SDS011;10761;48.532;8.026;2024-01-15T08:48:16;47.65;;;22.20;;
21206;SDS011;10761;48.532;8.026;2024-01-15T08:50:42;37.85;;;18.42;;
21206;SDS011;10761;48.532;8.026;2024-01-15T08:53:10;42.97;;;19.98;;
21206;SDS011;10761;48.532;8.026;2024-01-15T08:55:37;46.00;;;22.45;;
21206;SDS011;10761;48.532;8.026;2024-01-15T08:58:02;44.33;;;21.30;;
21206;SDS011;10761;48.532;8.026;2024-01-15T09:00:28;43.63;;;21.75;;
21206;SDS011;10761;48.532;8.026;2024-01-15T09:02:54;46.05;;;21.08;;
21206;SDS011;10761;48.532;8.026;2024-01-15T09:05:21;52.90;;;23.40;;
21206;SDS011;10761;48.532;8.026;2024-01-15T09:07:47;47.65;;;21.02;;
21206;SDS011;10761;48.532;8.026;2024-01-15T09:10:13;45.45;;;18.95;;
21206;SDS011;10761;48.532;8.026;2024-01-15T09:12:38;42.33;;;19.02;;
21206;SDS011;10761;48.532;8.026;2024-01-15T09:15:04;48.33;;;22.10;;
21206;SDS011;10761;48.532;8.026;2024-01-15T09:17:31;47.80;;;22.17;;
21206;SDS011;10761;48.532;8.026;2024-01-15T09:19:57;44.63;;;19.48;;
21206;SDS011;10761;48.532;8.026;2024-01-15T09:22:23;43.40;;;19.52;;
21206;SDS011;10761;48.532;8.026;2024-01-15T09:24:48;41.40;;;17.70;;
21206;SDS011;10761;48.532;8.026;2024-01-15T09:27:14;44.92;;;18.20;;
21206;SDS011;10761;48.532;8.026;2024-01-15T09:29:40;39.55;;;18.88;;
21206;SDS011;10761;48.532;8.026;2024-01-15T09:32:07;35.45;;;17.10;;
21206;SDS011;10761;48.532;8.026;2024-01-15T09:34:33;37.58;;;15.68;;
21206;SDS011;10761;48.532;8.026;2024-01-15T09:36:59;32.90;;;15.13;;
21206;SDS011;10761;48.532;8.026;2024-01-15T09:39:30;35.22;;;15.73;;
21206;SDS011;10761;48.532;8.026;2024-01-15T09:41:56;32.83;;;14.48;;
21206;SDS011;10761;48.532;8.026;2024-01-15T09:44:22;33.20;;;13.60;;
21206;SDS011;10761;48.532;8.026;2024-01-15T09:46:48;31.77;;;14.93;;
21206;SDS011;10761;48.532;8.026;2024-01-15T09:49:17;35.22;;;15.30;;
21206;SDS011;10761;48.532;8.026;2024-01-15T09:51:43;37.20;;;14.65;;
21206;SDS011;10761;48.532;8.026;2024-01-15T09:54:09;33.47;;;14.63;;
21206;SDS011;10761;48.532;8.026;2024-01-15T09:56:35;32.50;;;15.90;;
21206;SDS011;10761;48.532;8.026;2024-01-15T09:59:01;26.95;;;11.98;;
21206;SDS011;10761;48.532;8.026;2024-01-15T10:01:27;27.00;;;11.55;;
21206;SDS011;10761;48.532;8.026;2024-01-15T10:03:53;31.30;;;14.27;;
21206;SDS011;10761;48.532;8.026;2024-01-15T10:06:20;30.42;;;13.98;;
21206;SDS011;10761;48.532;8.026;2024-01-15T10:08:47;28.52;;;12.55;;
21206;SDS011;10761;48.532;8.026;2024-01-15T10:11:14;21.88;;;10.60;;
21206;SDS011;10761;48.532;8.026;2024-01-15T10:13:41;24.33;;;10.80;;
21206;SDS011;10761;48.532;8.026;2024-01-15T10:16:08;22.33;;;10.45;;
21206;SDS011;10761;48.532;8.026;2024-01-15T10:18:34;21.67;;;10.75;;
21206;SDS011;10761;48.532;8.026;2024-01-15T10:21:02;22.98;;;11.25;;
21206;SDS011;10761;48.532;8.026;2024-01-15T10:23:28;24.17;;;11.52;;
21206;SDS011;10761;48.532;8.026;2024-01-15T10:25:55;19.67;;;8.48;;
21206;SDS011;10761;48.532;8.026;2024-01-15T10:28:22;21.52;;;11.25;;
21206;SDS011;10761;48.532;8.026;2024-01-15T10:30:51;21.63;;;10.05;;
21206;SDS011;10761;48.532;8.026;2024-01-15T10:33:23;20.45;;;9.93;;
21206;SDS011;10761;48.532;8.026;2024-01-15T10:35:50;21.50;;;12.15;;
21206;SDS011;10761;48.532;8.026;2024-01-15T10:38:24;20.38;;;10.77;;
21206;SDS011;10761;48.532;8.026;2024-01-15T10:40:51;18.17;;;8.70;;
21206;SDS011;10761;48.532;8.026;2024-01-15T10:43:17;19.60;;;9.15;;
21206;SDS011;10761;48.532;8.026;2024-01-15T10:45:46;24.60;;;10.77;;
21206;SDS011;10761;48.532;8.026;2024-01-15T10:48:16;22.10;;;10.18;;
21206;SDS011;10761;48.532;8.026;2024-01-15T10:50:43;21.33;;;10.52;;
21206;SDS011;10761;48.532;8.026;2024-01-15T10:53:09;19.88;;;9.75;;
21206;SDS011;10761;48.532;8.026;2024-01-15T10:55:37;18.38;;;8.30;;
21206;SDS011;10761;48.532;8.026;2024-01-15T10:58:04;22.80;;;10.95;;
21206;SDS011;10761;48.532;8.026;2024-01-15T11:00:32;18.23;;;9.10;;
21206;SDS011;10761;48.532;8.026;2024-01-15T11:03:00;21.25;;;11.20;;
21206;SDS011;10761;48.532;8.026;2024-01-15T11:05:27;18.30;;;8.20;;
21206;SDS011;10761;48.532;8.026;2024-01-15T11:07:55;20.50;;;9.95;;
21206;SDS011;10761;48.532;8.026;2024-01-15T11:13:14;16.25;;;8.45;;
21206;SDS011;10761;48.532;8.026;2024-01-15T11:15:54;17.65;;;8.68;;
21206;SDS011;10761;48.532;8.026;2024-01-15T11:18:25;13.13;;;6.20;;
21206;SDS011;10761;48.532;8.026;2024-01-15T11:23:43;16.85;;;8.00;;
21206;SDS011;10761;48.532;8.026;2024-01-15T11:28:55;13.88;;;7.00;;
21206;SDS011;10761;48.532;8.026;2024-01-15T11:31:28;16.45;;;8.00;;
21206;SDS011;10761;48.532;8.026;2024-01-15T11:33:54;12.73;;;6.07;;
21206;SDS011;10761;48.532;8.026;2024-01-15T11:36:21;14.30;;;8.05;;
21206;SDS011;10761;48.532;8.026;2024-01-15T11:42:00;12.05;;;6.90;;
21206;SDS011;10761;48.532;8.026;2024-01-15T11:44:30;11.13;;;5.97;;
21206;SDS011;10761;48.532;8.026;2024-01-15T11:47:00;15.90;;;7.07;;
21206;SDS011;10761;48.532;8.026;2024-01-15T11:52:23;13.18;;;7.38;;
21206;SDS011;10761;48.532;8.026;2024-01-15T11:54:54;15.13;;;8.35;;
21206;SDS011;10761;48.532;8.026;2024-01-15T11:57:36;14.88;;;7.20;;
21206;SDS011;10761;48.532;8.026;2024-01-15T12:00:08;15.80;;;8.60;;
21206;SDS011;10761;48.532;8.026;2024-01-15T12:02:35;13.20;;;7.85;;
21206;SDS011;10761;48.532;8.026;2024-01-15T12:05:01;16.20;;;8.55;;
21206;SDS011;10761;48.532;8.026;2024-01-15T12:07:28;15.55;;;8.20;;
21206;SDS011;10761;48.532;8.026;2024-01-15T12:09:53;16.33;;;8.93;;
21206;SDS011;10761;48.532;8.026;2024-01-15T12:12:24;14.68;;;9.10;;
21206;SDS011;10761;48.532;8.026;2024-01-15T12:15:02;15.07;;;7.40;;
21206;SDS011;10761;48.532;8.026;2024-01-15T12:17:28;18.45;;;9.00;;
21206;SDS011;10761;48.532;8.026;2024-01-15T12:19:54;17.65;;;9.10;;
21206;SDS011;10761;48.532;8.026;2024-01-15T12:22:21;16.10;;;9.10;;
21206;SDS011;10761;48.532;8.026;2024-01-15T12:24:47;18.98;;;9.55;;
21206;SDS011;10761;48.532;8.026;2024-01-15T12:27:12;16.33;;;9.40;;
21206;SDS011;10761;48.532;8.026;2024-01-15T12:29:38;15.45;;;8.90;;
21206;SDS011;10761;48.532;8.026;2024-01-15T12:32:04;17.85;;;9.68;;
21206;SDS011;10761;48.532;8.026;2024-01-15T12:34:30;19.92;;;11.20;;
21206;SDS011;10761;48.532;8.026;2024-01-15T12:36:57;18.52;;;10.35;;
21206;SDS011;10761;48.532;8.026;2024-01-15T12:39:23;17.92;;;11.00;;
21206;SDS011;10761;48.532;8.026;2024-01-15T12:41:49;19.15;;;11.07;;
21206;SDS011;10761;48.532;8.026;2024-01-15T12:44:16;19.95;;;11.00;;
21206;SDS011;10761;48.532;8.026;2024-01-15T12:46:41;20.73;;;10.68;;
21206;SDS011;10761;48.532;8.026;2024-01-15T12:49:07;18.08;;;10.27;;
21206;SDS011;10761;48.532;8.026;2024-01-15T12:51:36;16.27;;;9.10;;
21206;SDS011;10761;48.532;8.026;2024-01-15T12:54:02;18.50;;;9.02;;
21206;SDS011;10761;48.532;8.026;2024-01-15T12:56:27;16.52;;;9.93;;
21206;SDS011;10761;48.532;8.026;2024-01-15T12:58:53;16.58;;;10.32;;
21206;SDS011;10761;48.532;8.026;2024-01-15T13:01:18;17.90;;;9.63;;
21206;SDS011;10761;48.532;8.026;2024-01-15T13:03:44;21.00;;;11.23;;
21206;SDS011;10761;48.532;8.026;2024-01-15T13:06:10;19.25;;;11.10;;
21206;SDS011;10761;48.532;8.026;2024-01-15T13:08:35;18.90;;;10.40;;
21206;SDS011;10761;48.532;8.026;2024-01-15T13:11:00;19.88;;;11.57;;
21206;SDS011;10761;48.532;8.026;2024-01-15T13:13:26;19.80;;;11.05;;
21206;SDS011;10761;48.532;8.026;2024-01-15T13:15:52;18.25;;;9.55;;
21206;SDS011;10761;48.532;8.026;2024-01-15T13:18:19;17.65;;;10.43;;
21206;SDS011;10761;48.532;8.026;2024-01-15T13:20:46;19.42;;;10.45;;
21206;SDS011;10761;48.532;8.026;2024-01-15T13:23:12;21.00;;;10.40;;
21206;SDS011;10761;48.532;8.026;2024-01-15T13:25:37;19.67;;;11.15;;
21206;SDS011;10761;48.532;8.026;2024-01-15T13:28:04;20.58;;;11.90;;
21206;SDS011;10761;48.532;8.026;2024-01-15T13:30:30;19.20;;;11.85;;
21206;SDS011;10761;48.532;8.026;2024-01-15T13:32:56;21.92;;;11.95;;
21206;SDS011;10761;48.532;8.026;2024-01-15T13:35:22;18.38;;;11.18;;
21206;SDS011;10761;48.532;8.026;2024-01-15T13:37:48;18.90;;;11.43;;
21206;SDS011;10761;48.532;8.026;2024-01-15T13:40:14;19.73;;;11.50;;
21206;SDS011;10761;48.532;8.026;2024-01-15T13:42:45;19.20;;;10.90;;
21206;SDS011;10761;48.532;8.026;2024-01-15T13:45:11;22.67;;;11.60;;
21206;SDS011;10761;48.532;8.026;2024-01-15T13:47:39;18.92;;;11.57;;
21206;SDS011;10761;48.532;8.026;2024-01-15T13:50:06;21.40;;;12.90;;
21206;SDS011;10761;48.532;8.026;2024-01-15T13:52:32;23.38;;;13.18;;
21206;SDS011;10761;48.532;8.026;2024-01-15T13:54:57;25.92;;;13.45;;
21206;SDS011;10761;48.532;8.026;2024-01-15T13:57:23;23.95;;;12.85;;
21206;SDS011;10761;48.532;8.026;2024-01-15T13:59:48;27.00;;;15.85;;
21206;SDS011;10761;48.532;8.026;2024-01-15T14:02:14;25.25;;;13.88;;
21206;SDS011;10761;48.532;8.026;2024-01-15T14:04:40;23.77;;;15.35;;
21206;SDS011;10761;48.532;8.026;2024-01-15T14:07:06;31.40;;;17.70;;
21206;SDS011;10761;48.532;8.026;2024-01-15T14:09:32;26.73;;;13.73;;
21206;SDS011;10761;48.532;8.026;2024-01-15T14:11:57;18.23;;;11.43;;
21206;SDS011;10761;48.532;8.026;2024-01-15T14:14:23;18.92;;;11.43;;
21206;SDS011;10761;48.532;8.026;2024-01-15T14:16:49;20.27;;;11.10;;
21206;SDS011;10761;48.532;8.026;2024-01-15T14:19:15;16.92;;;9.50;;
21206;SDS011;10761;48.532;8.026;2024-01-15T14:21:40;14.82;;;8.68;;
21206;SDS011;10761;48.532;8.026;2024-01-15T14:24:06;15.13;;;8.88;;
21206;SDS011;10761;48.532;8.026;2024-01-15T14:26:31;13.13;;;8.95;;
21206;SDS011;10761;48.532;8.026;2024-01-15T14:28:57;11.70;;;7.47;;
21206;SDS011;10761;48.532;8.026;2024-01-15T14:31:26;11.77;;;7.85;;
21206;SDS011;10761;48.532;8.026;2024-01-15T14:33:53;10.88;;;7.82;;